Caledonia, WI (53108)

10:16 AM CDT on September 04, 2015 (GMT -0500)
Near Oak Creek HS | | Change Station
CLOSE
Current Station
Personal Weather Station
Location: Oak Creek, WI
Elevation: 719 ft
Nearby Weather Stations

Elev 719 ft 42.89 °N, 87.91 °W | Updated 12 seconds ago

Overcast
Overcast
71.6 °F
Feels Like 72 °F
N
0.0
Wind Variable Wind from NNW
Gusts 0.0 mph

Today
High -- | Low -- °F
--% Chance of Precip.
Yesterday
High -- | Low -- °F
Precip. -- in
6:19 AM 7:21 PM
Waning Gibbous, 58% visible
Pressure 30.05 in
Visibility 10.0 miles
Clouds Overcast 1400 ft
Heat Index 72 °F
Dew Point 66 °F
Humidity 81%
Rainfall 0.00 in
Snow Depth Not available.
UV 2.0 out of 12
Pollen 9.00 out of 12
Air Quality Not available.
Flu Activity Not available.
METAR KRAC 041453Z AUTO 02006KT 10SM OVC014 22/18 A3006 RMK AO2 SLP176 T02170178 53008
Pressure 30.05 in
Visibility 10.0 miles
Clouds Overcast 1400 ft
Heat Index 72 °F
Dew Point 66 °F
Humidity 81%
Rainfall 0.00 in
Snow Depth Not available.
UV 2.0 out of 12
Pollen 9.00 out of 12
Air Quality Not available.
Flu Activity Not available.
METAR KRAC 041453Z AUTO 02006KT 10SM OVC014 22/18 A3006 RMK AO2 SLP176 T02170178 53008

10-Day Weather Forecast

×

Almanac

Astronomy

Sep. 04, 2015 Rise Set
Actual Time
Civil Twilight
Nautical Twilight
Astronomical Twilight
Moon
Length of Visible Light
Length of Day
Tomorrow will be .
, % of the Moon is Illuminated

Today's Extremes

State Highs State Lows

Community

WunderPhotos

Upload Photos

1,852,190 photos uploaded!

WunderBlogs® & News

Nearby

Air Quality

  Air Quality AQ Index Pollutant
Not available.

Snow Depth

Station Depth Elevation

Earthquake Activity

City Distance Mag. Time & Date
Minimum magnitude displayed is 2.5.

Coastal Water Temperatures

Place Temperature

Stations

Nearby Weather Stations

Station Location Temp. Windchill Dew Point Humidity Wind Precip. Elev Updated Type